Time;durP1;ratioP1;P1;durP2;ratioP2;P2;SDS_P1;SDS_P2;PMS_P1;PMS_P2;Temp;Humidity;BMP_temperature;BMP_pressure;BME280_temperature;BME280_humidity;BME280_pressure;Samples;Min_cycle;Max_cycle;Signal;HPM_P1;HPM_P2
2022/10/17 00:00:31;;;;;;;7.47;5.00;;;16.40;99.90;;;;;;4965342;28;20033;-75
2022/10/17 00:02:56;;;;;;;8.18;5.25;;;16.40;99.90;;;;;;4955537;28;20094;-77
2022/10/17 00:05:23;;;;;;;9.23;4.32;;;16.40;99.90;;;;;;4969952;28;20043;-76
2022/10/17 00:07:52;;;;;;;8.48;5.78;;;16.40;99.90;;;;;;4964038;28;20034;-77
2022/10/17 00:10:20;;;;;;;8.43;4.95;;;16.40;99.90;;;;;;4959821;28;20046;-76
2022/10/17 00:12:46;;;;;;;6.25;5.20;;;16.40;99.90;;;;;;4963400;28;20024;-76
2022/10/17 00:15:15;;;;;;;12.80;5.63;;;16.40;99.90;;;;;;4959284;28;20031;-76
2022/10/17 00:17:41;;;;;;;4.97;4.47;;;16.40;99.90;;;;;;4955446;28;20023;-77
2022/10/17 00:20:07;;;;;;;5.88;5.10;;;16.40;99.90;;;;;;4954736;28;20031;-77
2022/10/17 00:22:33;;;;;;;12.75;5.03;;;16.40;99.90;;;;;;4966064;28;20046;-76
2022/10/17 00:24:58;;;;;;;6.78;5.22;;;16.40;99.90;;;;;;4960862;28;20755;-76
2022/10/17 00:27:24;;;;;;;7.28;5.22;;;16.40;99.90;;;;;;4961891;28;20042;-76
2022/10/17 00:29:50;;;;;;;10.73;5.75;;;16.50;99.90;;;;;;4959504;28;20460;-75
2022/10/17 00:32:17;;;;;;;7.30;4.80;;;16.50;99.90;;;;;;4960139;28;20029;-76
2022/10/17 00:34:43;;;;;;;6.70;5.22;;;16.50;99.90;;;;;;4978815;28;20094;-77
2022/10/17 00:37:09;;;;;;;6.82;4.68;;;16.50;99.90;;;;;;4965748;28;20031;-76
2022/10/17 00:39:37;;;;;;;9.02;4.95;;;16.50;99.90;;;;;;4957852;28;20035;-76
2022/10/17 00:42:03;;;;;;;7.18;4.95;;;16.50;99.90;;;;;;4961330;28;20031;-76
2022/10/17 00:44:28;;;;;;;8.60;5.18;;;16.50;99.90;;;;;;4949844;28;20024;-76
2022/10/17 00:46:59;;;;;;;10.88;5.88;;;16.50;99.90;;;;;;4959843;28;20078;-77
2022/10/17 00:49:27;;;;;;;6.93;4.57;;;16.50;99.90;;;;;;4955062;28;20528;-78
2022/10/17 00:51:57;;;;;;;9.25;5.53;;;16.50;99.90;;;;;;4965616;28;20035;-76
2022/10/17 00:54:37;;;;;;;8.02;6.47;;;16.50;99.90;;;;;;4975997;28;20111;-77
2022/10/17 00:57:06;;;;;;;7.65;5.18;;;16.50;99.90;;;;;;4964511;28;20057;-77
2022/10/17 00:59:34;;;;;;;9.45;5.78;;;16.40;99.90;;;;;;4951893;28;20042;-77
2022/10/17 01:02:03;;;;;;;7.78;5.38;;;16.40;99.90;;;;;;4955947;28;20520;-76
2022/10/17 01:04:29;;;;;;;9.73;5.82;;;16.40;99.90;;;;;;4964213;28;20035;-77
2022/10/17 01:06:57;;;;;;;18.45;5.90;;;16.40;99.90;;;;;;4950268;28;20450;-77
2022/10/17 01:09:26;;;;;;;10.18;5.75;;;16.40;99.90;;;;;;4950111;28;20023;-76
2022/10/17 01:12:07;;;;;;;11.15;5.78;;;16.40;99.90;;;;;;4954468;28;20057;-78
2022/10/17 01:14:45;;;;;;;7.97;5.47;;;16.40;99.90;;;;;;4955640;28;20035;-77
2022/10/17 01:17:28;;;;;;;5.72;4.93;;;16.40;99.90;;;;;;4960566;28;20040;-77
2022/10/17 01:20:06;;;;;;;5.93;5.30;;;16.40;99.90;;;;;;4954686;28;20035;-76
2022/10/17 01:22:46;;;;;;;7.70;5.55;;;16.40;99.90;;;;;;4960225;28;20031;-75
2022/10/17 01:25:29;;;;;;;8.77;5.78;;;16.40;99.90;;;;;;4964722;28;20181;-77
2022/10/17 01:28:19;;;;;;;8.27;6.03;;;16.50;99.90;;;;;;4941400;28;20496;-77
2022/10/17 01:30:48;;;;;;;8.57;5.90;;;16.50;99.90;;;;;;4969536;28;20035;-76
2022/10/17 01:33:27;;;;;;;7.65;5.28;;;16.50;99.90;;;;;;4955559;28;20672;-78
2022/10/17 01:35:59;;;;;;;17.55;6.03;;;16.50;99.90;;;;;;4944950;28;20032;-77
2022/10/17 01:38:32;;;;;;;15.60;5.75;;;16.50;99.90;;;;;;4961142;28;20440;-77
2022/10/17 01:41:09;;;;;;;8.80;5.88;;;16.60;99.90;;;;;;4948980;28;20027;-76
2022/10/17 01:43:50;;;;;;;9.88;6.35;;;16.70;99.90;;;;;;4959737;28;20027;-76
2022/10/17 01:46:25;;;;;;;11.82;5.30;;;16.70;99.90;;;;;;4958629;28;20035;-77
2022/10/17 01:48:52;;;;;;;15.05;6.30;;;16.70;99.90;;;;;;4962057;28;20019;-77
2022/10/17 01:51:22;;;;;;;9.13;6.30;;;16.80;99.90;;;;;;4957289;28;20129;-76
2022/10/17 01:53:55;;;;;;;12.18;6.20;;;16.80;99.90;;;;;;4956336;28;20023;-76
2022/10/17 01:56:25;;;;;;;9.20;5.93;;;16.90;99.90;;;;;;4943727;28;20042;-77
2022/10/17 01:59:10;;;;;;;7.55;6.05;;;16.90;99.90;;;;;;4951145;28;20027;-75
2022/10/17 02:01:37;;;;;;;7.25;6.10;;;16.90;99.90;;;;;;4957831;28;20464;-76
2022/10/17 02:04:06;;;;;;;7.78;5.85;;;16.90;99.90;;;;;;4953419;28;20035;-77
2022/10/17 02:06:36;;;;;;;11.65;6.20;;;16.90;99.90;;;;;;4961114;28;20035;-75
2022/10/17 02:09:19;;;;;;;6.80;5.70;;;17.00;99.90;;;;;;4960718;28;20089;-76
2022/10/17 02:12:10;;;;;;;7.97;6.18;;;17.00;99.90;;;;;;4956392;28;20027;-77
2022/10/17 02:14:44;;;;;;;10.27;6.88;;;17.00;99.90;;;;;;4958200;28;20135;-75
2022/10/17 02:17:29;;;;;;;10.00;6.35;;;17.00;99.90;;;;;;4961841;28;20035;-82
2022/10/17 02:20:14;;;;;;;11.02;6.80;;;17.10;99.90;;;;;;4949047;28;20032;-78
2022/10/17 02:23:02;;;;;;;13.52;6.70;;;17.10;99.90;;;;;;4952176;28;20087;-79
2022/10/17 02:25:30;;;;;;;13.50;6.40;;;17.10;99.90;;;;;;4952662;28;20047;-79
2022/10/17 02:28:22;;;;;;;9.93;6.15;;;17.10;99.90;;;;;;4956315;28;20420;-82
2022/10/17 02:31:00;;;;;;;13.75;6.32;;;17.20;99.90;;;;;;4966455;28;20437;-80
2022/10/17 02:34:02;;;;;;;9.32;6.00;;;17.20;99.90;;;;;;4961391;28;20372;-81
2022/10/17 02:36:36;;;;;;;20.30;7.00;;;17.20;99.90;;;;;;4960929;28;20102;-81
2022/10/17 02:39:04;;;;;;;12.50;6.43;;;17.20;99.90;;;;;;4956995;28;20039;-82
2022/10/17 02:41:31;;;;;;;12.18;6.40;;;17.30;99.90;;;;;;4961240;28;20038;-81
2022/10/17 02:43:57;;;;;;;12.07;6.22;;;17.30;99.90;;;;;;4957017;28;20024;-85
2022/10/17 02:46:25;;;;;;;14.77;6.47;;;17.30;99.90;;;;;;4956314;28;20039;-80
2022/10/17 02:48:54;;;;;;;14.35;6.63;;;17.30;99.90;;;;;;4953388;28;20027;-80
2022/10/17 02:51:30;;;;;;;13.15;6.70;;;17.40;99.90;;;;;;4951130;28;20102;-81
2022/10/17 02:54:13;;;;;;;16.13;6.25;;;17.40;99.90;;;;;;4946082;28;20024;-82
2022/10/17 02:56:47;;;;;;;12.27;6.72;;;17.40;99.90;;;;;;4951492;28;20027;-81
2022/10/17 02:59:19;;;;;;;14.25;6.60;;;17.40;99.90;;;;;;4956588;28;20350;-81
2022/10/17 03:01:51;;;;;;;9.10;6.03;;;17.40;99.90;;;;;;4960809;28;20027;-81
2022/10/17 03:04:19;;;;;;;10.03;6.73;;;17.50;99.90;;;;;;4959099;28;20345;-85
2022/10/17 03:06:47;;;;;;;10.27;6.43;;;17.50;99.90;;;;;;4958320;28;20034;-81
2022/10/17 03:09:18;;;;;;;8.75;6.45;;;17.50;99.90;;;;;;4954564;28;20030;-82
2022/10/17 03:11:43;;;;;;;10.02;6.28;;;17.60;99.90;;;;;;4948875;28;20477;-83
2022/10/17 03:14:09;;;;;;;15.32;6.28;;;17.60;99.90;;;;;;4947084;28;20019;-84
2022/10/17 03:16:35;;;;;;;8.90;6.07;;;17.50;99.90;;;;;;4957374;28;20091;-74
2022/10/17 03:19:00;;;;;;;13.77;6.65;;;17.60;99.90;;;;;;4959248;28;20106;-84
2022/10/17 03:21:29;;;;;;;12.85;6.75;;;17.50;99.90;;;;;;4960958;28;20027;-83
2022/10/17 03:23:54;;;;;;;13.15;6.38;;;17.60;99.90;;;;;;4953804;28;20607;-83
2022/10/17 03:26:22;;;;;;;14.43;6.05;;;17.60;99.90;;;;;;4951918;28;20034;-83
2022/10/17 03:28:48;;;;;;;10.13;6.28;;;17.60;99.90;;;;;;4950782;28;20027;-78
2022/10/17 03:31:15;;;;;;;13.52;6.75;;;17.60;99.90;;;;;;4952983;28;20480;-83
2022/10/17 03:33:41;;;;;;;14.63;7.03;;;17.60;99.90;;;;;;4952573;28;20019;-80
2022/10/17 03:36:13;;;;;;;15.55;6.45;;;17.60;99.90;;;;;;4951492;28;20093;-79
2022/10/17 03:38:39;;;;;;;20.75;6.40;;;17.70;99.90;;;;;;4953827;28;20019;-80
2022/10/17 03:41:05;;;;;;;15.27;7.28;;;17.70;99.90;;;;;;4966984;28;20028;-73
2022/10/17 03:43:33;;;;;;;9.85;6.45;;;17.70;99.90;;;;;;4947394;28;20753;-82
2022/10/17 03:45:59;;;;;;;9.75;6.55;;;17.70;99.90;;;;;;4951821;28;20405;-79
2022/10/17 03:48:29;;;;;;;10.93;7.25;;;17.70;99.90;;;;;;4950384;28;20027;-81
2022/10/17 03:51:07;;;;;;;11.25;7.00;;;17.70;99.90;;;;;;4958416;28;20586;-82
2022/10/17 03:53:33;;;;;;;15.30;6.55;;;17.70;99.90;;;;;;4951614;28;20019;-84
2022/10/17 03:56:32;;;;;;;16.33;6.55;;;17.70;99.90;;;;;;4951140;28;20373;-83
2022/10/17 03:58:57;;;;;;;12.80;7.22;;;17.70;99.90;;;;;;4919293;28;20477;-83
2022/10/17 04:01:23;;;;;;;9.85;6.45;;;17.70;99.90;;;;;;4959344;28;20122;-84
2022/10/17 04:03:54;;;;;;;16.27;6.95;;;17.70;99.90;;;;;;4948697;28;20102;-83
2022/10/17 04:06:20;;;;;;;13.52;6.22;;;17.70;99.90;;;;;;4951538;28;20042;-80
2022/10/17 04:08:49;;;;;;;11.00;6.63;;;17.80;99.90;;;;;;4959365;28;20041;-84
2022/10/17 04:11:20;;;;;;;8.50;6.35;;;17.80;99.90;;;;;;4955422;28;20031;-80
2022/10/17 04:13:45;;;;;;;17.33;6.18;;;17.80;99.90;;;;;;4952082;28;20112;-81
2022/10/17 04:16:16;;;;;;;14.57;7.15;;;17.80;99.90;;;;;;4951457;28;20279;-84
2022/10/17 04:18:42;;;;;;;14.60;6.72;;;17.70;99.90;;;;;;4956169;28;20019;-82
2022/10/17 04:21:09;;;;;;;10.55;6.28;;;17.80;99.90;;;;;;4957257;28;20517;-80
2022/10/17 04:23:35;;;;;;;10.95;6.53;;;17.70;99.90;;;;;;4947541;28;20070;-82
2022/10/17 04:26:05;;;;;;;7.75;6.18;;;17.70;99.90;;;;;;4959610;28;20058;-81
2022/10/17 04:28:31;;;;;;;10.93;6.18;;;17.70;99.90;;;;;;4955592;28;20127;-81
2022/10/17 04:30:58;;;;;;;9.07;6.55;;;17.80;99.90;;;;;;4955301;28;20038;-78
2022/10/17 04:33:24;;;;;;;9.18;5.60;;;17.80;99.90;;;;;;4959186;28;20034;-83
2022/10/17 04:35:57;;;;;;;13.95;5.97;;;17.70;99.90;;;;;;4951147;28;20039;-80
2022/10/17 04:38:23;;;;;;;8.63;5.60;;;17.70;99.90;;;;;;4956906;28;20031;-79
2022/10/17 04:40:49;;;;;;;15.25;5.82;;;17.70;99.90;;;;;;4948782;28;20541;-83
2022/10/17 04:43:17;;;;;;;16.17;6.85;;;17.80;99.90;;;;;;4956806;28;20082;-84
2022/10/17 04:45:43;;;;;;;12.52;5.65;;;17.80;99.90;;;;;;4953626;28;20051;-77
2022/10/17 04:48:08;;;;;;;7.80;4.72;;;17.80;99.90;;;;;;4959370;28;20468;-73
2022/10/17 04:50:34;;;;;;;10.73;5.55;;;17.80;99.90;;;;;;4956552;28;20038;-84
2022/10/17 04:53:00;;;;;;;9.73;5.15;;;17.80;99.90;;;;;;4950729;28;20026;-84
2022/10/17 04:55:25;;;;;;;8.40;5.30;;;17.80;99.90;;;;;;4956761;28;20031;-79
2022/10/17 04:57:53;;;;;;;11.85;5.72;;;17.80;99.90;;;;;;4952904;28;20030;-85
2022/10/17 05:00:21;;;;;;;7.75;5.60;;;17.80;99.90;;;;;;4962930;28;20360;-84
2022/10/17 05:02:49;;;;;;;7.35;5.53;;;17.90;99.90;;;;;;4954090;28;20419;-84
2022/10/17 05:05:17;;;;;;;16.38;6.05;;;17.90;99.90;;;;;;4951295;28;20035;-86
2022/10/17 05:07:45;;;;;;;11.63;5.60;;;17.90;99.90;;;;;;4958930;28;20098;-81
2022/10/17 05:10:11;;;;;;;9.10;5.63;;;18.00;99.90;;;;;;4959956;28;20027;-84
2022/10/17 05:12:39;;;;;;;9.60;5.70;;;18.00;99.90;;;;;;4960557;28;20438;-86
2022/10/17 05:15:08;;;;;;;6.45;5.85;;;18.10;99.90;;;;;;4957124;28;20035;-85
2022/10/17 05:17:33;;;;;;;9.40;5.38;;;18.10;99.90;;;;;;4950788;28;20034;-83
2022/10/17 05:19:59;;;;;;;8.75;5.88;;;18.10;99.90;;;;;;4957141;28;20047;-80
2022/10/17 05:22:27;;;;;;;9.35;5.47;;;18.10;99.90;;;;;;4960193;28;20034;-83
2022/10/17 05:24:53;;;;;;;7.25;5.18;;;18.00;99.90;;;;;;4951782;28;20614;-86
2022/10/17 05:27:18;;;;;;;12.55;5.55;;;18.20;99.90;;;;;;4949118;28;20160;-81
2022/10/17 05:29:44;;;;;;;11.70;6.38;;;18.20;99.90;;;;;;4952259;28;20020;-84
2022/10/17 05:32:10;;;;;;;9.50;6.05;;;18.20;99.90;;;;;;4951976;28;20023;-83
2022/10/17 05:34:35;;;;;;;11.73;5.82;;;18.20;99.90;;;;;;4958602;28;20020;-80
2022/10/17 05:37:03;;;;;;;15.57;5.68;;;18.20;99.90;;;;;;4960898;28;20028;-83
2022/10/17 05:39:29;;;;;;;11.43;5.85;;;18.20;99.90;;;;;;4958693;28;20058;-73
2022/10/17 05:41:54;;;;;;;13.48;6.07;;;18.20;99.90;;;;;;4956135;28;20027;-75
2022/10/17 05:44:20;;;;;;;10.98;5.78;;;18.20;99.90;;;;;;4955108;28;20031;-80
2022/10/17 05:46:48;;;;;;;36.35;16.42;;;18.20;99.90;;;;;;4951806;28;20040;-76
2022/10/17 05:49:14;;;;;;;13.48;5.40;;;18.20;99.90;;;;;;4943253;28;20035;-83
2022/10/17 05:51:42;;;;;;;12.05;6.03;;;18.20;99.90;;;;;;4949292;28;20015;-85
2022/10/17 05:54:08;;;;;;;13.50;5.90;;;18.30;99.90;;;;;;4953176;28;20098;-82
2022/10/17 05:56:34;;;;;;;11.68;5.60;;;18.30;99.90;;;;;;4954135;28;20031;-74
2022/10/17 05:59:03;;;;;;;30.13;11.57;;;18.30;99.90;;;;;;4954247;28;20041;-74
2022/10/17 06:01:28;;;;;;;13.00;5.85;;;18.40;99.90;;;;;;4953804;28;20110;-80
2022/10/17 06:03:54;;;;;;;9.57;5.65;;;18.30;99.90;;;;;;4957585;28;20110;-80
2022/10/17 06:06:22;;;;;;;11.20;5.43;;;18.40;99.90;;;;;;4950701;28;20036;-82
2022/10/17 06:08:47;;;;;;;10.57;5.38;;;18.30;99.90;;;;;;4954454;28;20031;-84
2022/10/17 06:11:13;;;;;;;7.45;5.75;;;18.40;99.90;;;;;;4955703;28;20110;-79
2022/10/17 06:13:39;;;;;;;15.18;6.13;;;18.40;99.90;;;;;;4955396;28;20130;-79
2022/10/17 06:16:08;;;;;;;9.55;5.32;;;18.40;99.90;;;;;;4953088;28;20650;-88
2022/10/17 06:18:33;;;;;;;11.45;5.90;;;18.40;99.90;;;;;;4954930;28;20050;-82
2022/10/17 06:21:08;;;;;;;11.50;5.90;;;18.40;99.90;;;;;;4973200;28;20092;-82
2022/10/17 06:23:34;;;;;;;15.30;6.55;;;18.40;99.90;;;;;;4956275;28;20074;-83
2022/10/17 06:26:00;;;;;;;8.38;5.88;;;18.40;99.90;;;;;;4961471;28;20034;-74
2022/10/17 06:28:29;;;;;;;9.10;6.28;;;18.50;99.90;;;;;;4963039;28;20031;-79
2022/10/17 06:30:54;;;;;;;13.23;5.82;;;18.50;99.90;;;;;;4953402;28;20038;-74
2022/10/17 06:33:22;;;;;;;12.43;6.22;;;18.50;99.90;;;;;;4954329;28;20031;-83
2022/10/17 06:35:55;;;;;;;12.02;5.32;;;18.50;99.90;;;;;;4957299;28;20054;-81
2022/10/17 06:38:21;;;;;;;13.18;5.20;;;18.60;99.90;;;;;;4949568;28;20020;-84
2022/10/17 06:40:47;;;;;;;7.50;5.10;;;18.60;99.90;;;;;;4948777;28;20031;-84
2022/10/17 06:43:13;;;;;;;12.98;5.82;;;18.70;99.90;;;;;;4952776;28;20602;-80
2022/10/17 06:45:39;;;;;;;13.35;5.55;;;18.70;99.90;;;;;;4949641;28;20090;-80
2022/10/17 06:48:07;;;;;;;8.68;4.80;;;18.80;99.90;;;;;;4957911;28;20134;-82
2022/10/17 06:50:36;;;;;;;7.43;4.95;;;18.80;99.90;;;;;;4961329;28;20110;-79
2022/10/17 06:53:02;;;;;;;14.90;4.95;;;18.80;99.90;;;;;;4960462;28;20050;-73
2022/10/17 06:55:28;;;;;;;7.75;5.88;;;18.80;99.90;;;;;;4952477;28;20039;-74
2022/10/17 06:57:56;;;;;;;14.35;5.57;;;18.80;99.90;;;;;;4947313;28;20031;-81
2022/10/17 07:00:22;;;;;;;7.15;5.05;;;18.90;99.90;;;;;;4953670;28;20058;-84
2022/10/17 07:02:48;;;;;;;11.13;5.90;;;18.90;99.90;;;;;;4950375;28;20628;-76
2022/10/17 07:05:14;;;;;;;9.07;4.93;;;19.00;99.90;;;;;;4945534;28;20077;-85
2022/10/17 07:07:40;;;;;;;10.18;5.75;;;19.10;99.90;;;;;;4953447;28;20059;-76
2022/10/17 07:10:08;;;;;;;13.23;5.47;;;19.10;99.90;;;;;;4955899;28;20398;-82
2022/10/17 07:12:36;;;;;;;10.10;4.85;;;19.20;99.90;;;;;;4954754;28;20027;-83
2022/10/17 07:15:03;;;;;;;8.45;5.25;;;19.30;99.90;;;;;;4959071;28;20035;-84
2022/10/17 07:17:29;;;;;;;9.32;4.82;;;19.30;99.90;;;;;;4958491;28;20531;-82
2022/10/17 07:19:57;;;;;;;10.85;5.28;;;19.40;99.90;;;;;;4949468;28;20040;-80
2022/10/17 07:22:23;;;;;;;7.53;5.00;;;19.50;99.90;;;;;;4966838;28;20033;-82
2022/10/17 07:24:51;;;;;;;8.57;4.75;;;19.50;99.90;;;;;;4962322;28;20051;-81
2022/10/17 07:27:16;;;;;;;7.70;4.93;;;19.60;99.90;;;;;;4946928;28;20051;-80
2022/10/17 07:29:44;;;;;;;14.88;5.15;;;19.60;99.90;;;;;;4948492;28;20329;-82
2022/10/17 07:32:10;;;;;;;15.98;4.88;;;19.70;99.90;;;;;;4948415;28;20031;-82
2022/10/17 07:34:36;;;;;;;12.43;5.10;;;19.70;99.90;;;;;;4950746;28;20078;-84
2022/10/17 07:37:05;;;;;;;5.90;4.65;;;19.70;99.90;;;;;;4958997;28;20031;-84
2022/10/17 07:39:31;;;;;;;9.55;5.03;;;19.80;99.90;;;;;;4963905;28;20353;-83
2022/10/17 07:41:59;;;;;;;12.40;4.93;;;19.80;99.90;;;;;;4955879;28;20050;-83
2022/10/17 07:44:25;;;;;;;7.15;4.90;;;19.90;99.90;;;;;;4960277;28;20039;-80
2022/10/17 07:46:50;;;;;;;11.10;4.57;;;19.90;99.90;;;;;;4951101;28;20042;-82
2022/10/17 07:49:18;;;;;;;6.63;4.68;;;20.00;99.90;;;;;;4949988;28;20038;-84
2022/10/17 07:51:44;;;;;;;11.07;4.85;;;20.10;99.90;;;;;;4949492;28;20079;-80
2022/10/17 07:54:09;;;;;;;4.82;4.40;;;20.10;99.90;;;;;;4959332;28;20031;-79
2022/10/17 07:56:35;;;;;;;5.38;4.32;;;20.10;99.90;;;;;;4956009;28;20053;-81
2022/10/17 07:59:00;;;;;;;11.35;4.25;;;20.20;99.90;;;;;;4949578;28;20083;-83
2022/10/17 08:01:27;;;;;;;14.63;5.28;;;20.30;99.90;;;;;;4955889;28;20038;-80
2022/10/17 08:03:54;;;;;;;11.95;7.13;;;20.30;99.90;;;;;;4959556;28;20034;-74
2022/10/17 08:06:20;;;;;;;13.60;7.65;;;20.40;99.90;;;;;;4952250;28;20043;-74
2022/10/17 08:08:45;;;;;;;12.55;4.90;;;20.50;99.90;;;;;;4958189;28;20035;-73
2022/10/17 08:11:13;;;;;;;8.20;4.68;;;20.40;99.90;;;;;;4959784;28;20504;-76
2022/10/17 08:13:42;;;;;;;7.78;4.57;;;20.50;99.90;;;;;;4957022;28;20084;-83
2022/10/17 08:16:11;;;;;;;9.43;5.05;;;20.60;99.90;;;;;;4954627;28;20015;-85
2022/10/17 08:18:39;;;;;;;5.65;4.43;;;20.70;99.90;;;;;;4953594;28;20468;-84
2022/10/17 08:21:07;;;;;;;18.92;5.07;;;20.70;99.90;;;;;;4953339;28;20030;-81
2022/10/17 08:23:34;;;;;;;7.07;4.82;;;20.80;99.90;;;;;;4954388;28;20030;-82
2022/10/17 08:26:01;;;;;;;5.95;4.50;;;20.70;99.90;;;;;;4959700;28;20042;-86
2022/10/17 08:28:27;;;;;;;8.57;4.88;;;20.80;99.90;;;;;;4959127;28;20126;-85
2022/10/17 08:31:07;;;;;;;10.70;5.00;;;21.00;99.90;;;;;;4959612;28;20066;-75
2022/10/17 08:33:33;;;;;;;9.10;4.80;;;21.00;99.90;;;;;;4963297;28;20104;-83
2022/10/17 08:36:02;;;;;;;8.73;5.10;;;21.10;99.90;;;;;;4955424;28;20031;-84
2022/10/17 08:38:31;;;;;;;11.15;5.13;;;21.20;99.90;;;;;;4950501;28;20040;-83
2022/10/17 08:41:05;;;;;;;10.80;4.57;;;21.50;99.90;;;;;;4953799;28;20442;-87
2022/10/17 08:43:46;;;;;;;6.55;4.95;;;21.70;99.90;;;;;;4957984;28;20035;-82
2022/10/17 08:46:12;;;;;;;11.30;5.20;;;22.00;99.90;;;;;;4956575;28;20043;-87
2022/10/17 08:48:42;;;;;;;9.95;4.60;;;22.00;99.90;;;;;;4964139;28;20110;-83
2022/10/17 08:51:29;;;;;;;9.05;5.20;;;22.10;99.90;;;;;;4962184;28;20066;-87
2022/10/17 08:54:13;;;;;;;9.38;4.70;;;22.70;99.90;;;;;;4956659;28;20381;-81
2022/10/17 08:56:44;;;;;;;9.18;4.63;;;23.20;99.90;;;;;;4947697;28;20064;-86
2022/10/17 08:59:16;;;;;;;12.70;4.43;;;23.50;99.90;;;;;;4960696;28;20031;-83
2022/10/17 09:01:58;;;;;;;5.85;4.00;;;23.10;99.90;;;;;;4958128;28;20039;-86
2022/10/17 09:04:45;;;;;;;10.45;4.22;;;22.70;99.90;;;;;;4952640;28;20146;-86
2022/10/17 09:07:25;;;;;;;7.20;3.78;;;22.30;99.90;;;;;;4957352;28;20038;-84
2022/10/17 09:10:16;;;;;;;4.68;3.92;;;22.10;99.90;;;;;;4953649;28;20107;-86
2022/10/17 09:13:03;;;;;;;4.88;4.05;;;21.80;99.90;;;;;;4953181;28;20059;-86
2022/10/17 09:15:29;;;;;;;6.38;3.92;;;21.70;99.90;;;;;;4955221;28;20494;-73
2022/10/17 09:18:00;;;;;;;31.77;11.32;;;21.80;99.90;;;;;;4949385;28;20114;-75
2022/10/17 09:20:29;;;;;;;12.00;7.13;;;21.80;99.90;;;;;;4963505;28;20038;-75
2022/10/17 09:23:17;;;;;;;7.68;4.65;;;21.80;99.90;;;;;;4959262;28;20063;-75
2022/10/17 09:25:49;;;;;;;5.28;3.80;;;21.80;99.90;;;;;;4953528;28;20471;-75
2022/10/17 09:28:34;;;;;;;11.35;4.32;;;21.90;99.90;;;;;;4955121;28;20050;-75
2022/10/17 09:31:21;;;;;;;9.73;4.57;;;21.80;99.90;;;;;;4968314;28;20508;-74
2022/10/17 09:33:55;;;;;;;9.35;4.45;;;21.70;99.90;;;;;;4951747;28;20041;-73
2022/10/17 09:36:23;;;;;;;9.82;4.68;;;21.70;99.90;;;;;;4952234;28;20111;-76
2022/10/17 09:38:54;;;;;;;10.57;4.63;;;21.60;99.90;;;;;;4958357;28;20030;-75
2022/10/17 09:41:34;;;;;;;5.20;4.07;;;21.60;99.90;;;;;;4958976;28;20163;-75
2022/10/17 09:44:23;;;;;;;7.45;4.03;;;21.50;99.90;;;;;;4958924;28;20023;-74
2022/10/17 09:47:13;;;;;;;5.82;3.90;;;21.40;99.90;;;;;;4956550;28;20462;-73
2022/10/17 09:49:44;;;;;;;5.10;3.63;;;21.40;99.90;;;;;;4955172;28;20031;-85
2022/10/17 09:52:47;;;;;;;7.30;4.45;;;21.30;99.90;;;;;;4954392;28;20023;-84
2022/10/17 09:55:32;;;;;;;6.05;4.05;;;21.20;99.90;;;;;;4954611;28;20043;-81
2022/10/17 09:58:00;;;;;;;7.43;3.88;;;21.20;99.90;;;;;;4956197;28;20059;-84
2022/10/17 10:00:27;;;;;;;5.75;3.53;;;21.20;99.90;;;;;;4951236;28;20054;-88
2022/10/17 10:03:11;;;;;;;7.97;3.92;;;21.20;99.90;;;;;;4960969;28;20037;-79
2022/10/17 10:05:38;;;;;;;9.73;4.22;;;21.00;99.90;;;;;;4955120;28;20026;-82
2022/10/17 10:08:11;;;;;;;13.05;5.07;;;21.00;99.90;;;;;;4958803;28;20031;-88
2022/10/17 10:10:41;;;;;;;9.20;4.28;;;20.90;99.90;;;;;;4961256;28;20039;-88
2022/10/17 10:13:13;;;;;;;12.95;5.00;;;20.80;99.90;;;;;;4956885;28;20496;-83
2022/10/17 10:15:47;;;;;;;6.03;4.00;;;21.00;99.90;;;;;;4956937;28;20727;-86
2022/10/17 10:18:24;;;;;;;13.05;3.60;;;20.90;99.90;;;;;;4956565;28;20115;-85
2022/10/17 10:21:13;;;;;;;6.90;3.70;;;20.90;99.90;;;;;;4945139;28;20089;-86
2022/10/17 10:23:43;;;;;;;9.77;3.97;;;21.10;99.90;;;;;;4949709;28;20036;-75
2022/10/17 10:26:28;;;;;;;10.85;4.05;;;21.10;99.90;;;;;;4955434;28;20023;-76
2022/10/17 10:28:59;;;;;;;8.57;4.55;;;21.10;99.90;;;;;;4955611;28;20039;-76
2022/10/17 10:31:34;;;;;;;16.00;4.35;;;21.10;99.90;;;;;;4951699;28;20354;-76
2022/10/17 10:34:11;;;;;;;10.45;4.38;;;21.10;99.90;;;;;;4957406;28;20419;-76
2022/10/17 10:36:52;;;;;;;8.18;4.05;;;21.10;99.90;;;;;;4954757;28;20029;-76
2022/10/17 10:39:26;;;;;;;9.27;3.97;;;21.10;99.90;;;;;;4955407;28;20027;-75
2022/10/17 10:41:52;;;;;;;8.77;4.00;;;21.10;99.90;;;;;;4954656;28;20046;-74
2022/10/17 10:44:22;;;;;;;10.18;4.25;;;20.90;99.90;;;;;;4953950;28;20752;-74
2022/10/17 10:47:06;;;;;;;10.30;4.50;;;20.90;99.90;;;;;;4949175;28;20120;-74
2022/10/17 10:49:31;;;;;;;;;;;20.80;99.90;;;;;;4953205;28;20027;-76
2022/10/17 10:51:59;;;;;;;7.13;4.28;;;20.70;99.90;;;;;;4955339;28;19991;-76
2022/10/17 10:54:32;;;;;;;7.82;4.40;;;20.60;99.90;;;;;;4955085;28;20443;-77
2022/10/17 10:57:02;;;;;;;10.00;4.13;;;20.70;99.90;;;;;;4953613;28;20118;-78
2022/10/17 11:00:03;;;;;;;8.57;4.53;;;20.70;99.90;;;;;;4958397;28;20394;-77
2022/10/17 11:02:29;;;;;;;10.52;5.22;;;20.50;99.90;;;;;;4947325;28;20043;-76
2022/10/17 11:05:04;;;;;;;11.52;4.35;;;20.50;99.90;;;;;;4952671;28;20091;-75
2022/10/17 11:07:42;;;;;;;14.35;5.63;;;20.40;99.90;;;;;;4953308;28;20114;-76
2022/10/17 11:10:13;;;;;;;12.63;5.93;;;20.30;99.90;;;;;;4948825;28;20032;-75
2022/10/17 11:12:45;;;;;;;8.23;4.15;;;20.30;99.90;;;;;;4952547;28;20035;-77
2022/10/17 11:15:26;;;;;;;8.50;4.37;;;20.30;99.90;;;;;;4950762;28;20098;-77
2022/10/17 11:18:13;;;;;;;15.73;5.40;;;20.20;99.90;;;;;;4952830;28;20916;-78
2022/10/17 11:21:03;;;;;;;7.57;4.93;;;20.10;99.90;;;;;;4952248;28;20633;-79
2022/10/17 11:23:50;;;;;;;9.00;4.82;;;20.00;99.90;;;;;;4955790;28;20031;-77
2022/10/17 11:26:25;;;;;;;12.15;5.15;;;20.00;99.90;;;;;;4950574;28;20399;-75
2022/10/17 11:28:55;;;;;;;8.60;5.30;;;20.10;99.90;;;;;;4958388;28;20023;-78
2022/10/17 11:31:26;;;;;;;63.15;28.10;;;20.30;99.90;;;;;;4957501;28;20073;-75
2022/10/17 11:34:03;;;;;;;17.42;5.80;;;20.40;99.90;;;;;;4952007;28;20023;-78
2022/10/17 11:36:37;;;;;;;14.15;5.60;;;20.50;99.90;;;;;;4952623;28;20020;-76
2022/10/17 11:39:15;;;;;;;12.82;5.60;;;20.40;99.90;;;;;;4958140;28;20480;-77
2022/10/17 11:41:53;;;;;;;12.02;5.43;;;20.50;99.90;;;;;;4972509;28;20132;-78
2022/10/17 11:44:31;;;;;;;10.02;4.85;;;20.60;99.90;;;;;;4966044;28;20065;-77
2022/10/17 11:47:09;;;;;;;10.38;5.03;;;20.70;99.90;;;;;;4951768;28;20465;-78
2022/10/17 11:49:39;;;;;;;7.50;4.32;;;20.80;99.90;;;;;;4957219;28;20033;-75
2022/10/17 11:52:25;;;;;;;9.43;5.47;;;20.70;99.90;;;;;;4954364;28;20833;-78
2022/10/17 11:54:55;;;;;;;9.82;5.30;;;20.70;99.90;;;;;;4949065;28;20027;-78
2022/10/17 11:57:55;;;;;;;23.38;6.05;;;20.70;99.90;;;;;;4950022;28;20042;-78
2022/10/17 12:00:56;;;;;;;6.63;4.70;;;20.70;99.90;;;;;;4949091;28;20030;-75
2022/10/17 12:03:40;;;;;;;133.40;63.10;;;20.60;99.90;;;;;;4947900;28;20023;-78
2022/10/17 12:06:33;;;;;;;7.03;5.57;;;20.60;99.90;;;;;;4965279;28;20508;-76
2022/10/17 12:09:24;;;;;;;17.98;5.38;;;20.50;99.90;;;;;;4949324;28;20082;-78
2022/10/17 12:11:54;;;;;;;7.70;5.60;;;20.50;99.90;;;;;;4949313;28;20094;-78
2022/10/17 12:14:35;;;;;;;15.73;5.32;;;20.50;99.90;;;;;;4952053;28;20023;-78
2022/10/17 12:17:02;;;;;;;8.13;5.15;;;20.50;99.90;;;;;;4947592;28;20027;-78
2022/10/17 12:19:36;;;;;;;9.10;5.20;;;20.60;99.90;;;;;;4953586;28;20034;-79
2022/10/17 12:22:03;;;;;;;10.40;5.45;;;20.70;99.90;;;;;;4955910;28;20531;-78
2022/10/17 12:24:39;;;;;;;8.75;5.65;;;20.70;99.90;;;;;;4955114;28;20039;-79
2022/10/17 12:27:26;;;;;;;13.77;6.10;;;20.60;99.90;;;;;;4954857;28;20049;-73
2022/10/17 12:29:59;;;;;;;15.57;6.38;;;20.60;99.90;;;;;;4957409;28;20031;-78
2022/10/17 12:32:27;;;;;;;;;;;20.60;99.90;;;;;;4945333;28;20360;-78
2022/10/17 12:34:56;;;;;;;6.88;5.65;;;20.50;99.90;;;;;;4952501;28;19914;-79
2022/10/17 12:37:44;;;;;;;15.65;6.15;;;20.50;99.90;;;;;;4955253;28;20031;-78
2022/10/17 12:40:34;;;;;;;9.60;6.60;;;20.50;99.90;;;;;;4961995;28;20457;-77
2022/10/17 12:43:23;;;;;;;9.93;6.00;;;20.60;99.90;;;;;;4970970;28;20031;-79
2022/10/17 12:45:57;;;;;;;23.42;6.65;;;20.50;99.90;;;;;;4958719;28;20023;-80
2022/10/17 12:49:00;;;;;;;17.65;6.50;;;20.50;99.90;;;;;;4954889;28;20117;-78
2022/10/17 12:51:28;;;;;;;25.63;7.40;;;20.60;99.90;;;;;;4948493;28;20046;-79
2022/10/17 12:54:00;;;;;;;15.95;6.88;;;20.40;99.90;;;;;;4954028;28;20039;-80
2022/10/17 12:56:41;;;;;;;481.60;248.63;;;20.40;99.90;;;;;;4949111;28;20031;-75
2022/10/17 12:59:12;;;;;;;9.57;6.40;;;20.50;99.90;;;;;;4954133;28;20070;-79
2022/10/17 13:01:42;;;;;;;9.30;5.43;;;20.60;99.90;;;;;;4958436;28;20024;-79
2022/10/17 13:04:10;;;;;;;9.73;6.53;;;20.60;99.90;;;;;;4953015;28;20038;-77
2022/10/17 13:06:45;;;;;;;7.15;5.90;;;20.70;99.90;;;;;;4951979;28;20025;-78